Time;durP1;ratioP1;P1;durP2;ratioP2;P2;SDS_P1;SDS_P2;PMS_P1;PMS_P2;Temp;Humidity;BMP_temperature;BMP_pressure;BME280_temperature;BME280_humidity;BME280_pressure;Samples;Min_cycle;Max_cycle;Signal;HPM_P1;HPM_P2
2023/06/10 00:01:59;;;;;;;;;16.67;14.33;;;;;28.04;42.71;68767.16;5004527;28;45458;-87
2023/06/10 00:04:25;;;;;;;;;15.00;13.33;;;;;28.03;42.38;68795.28;4996128;28;45530;-87
2023/06/10 00:06:51;;;;;;;;;17.67;13.67;;;;;27.49;42.56;68746.97;5013511;28;45570;-88
2023/06/10 00:09:16;;;;;;;;;18.33;17.00;;;;;28.05;42.43;68716.06;5013574;28;46012;-88
2023/06/10 00:11:42;;;;;;;;;20.67;17.00;;;;;27.77;42.68;68701.16;4994568;28;47101;-87
2023/06/10 00:14:08;;;;;;;;;20.67;18.00;;;;;28.06;42.71;68619.97;4990783;28;45566;-88
2023/06/10 00:16:34;;;;;;;;;20.67;20.33;;;;;27.76;42.38;68590.69;5010241;28;45505;-88
2023/06/10 00:19:03;;;;;;;;;23.00;21.67;;;;;28.02;42.68;68637.00;5004949;28;47397;-88
2023/06/10 00:21:30;;;;;;;;;21.33;18.00;;;;;27.76;42.74;68547.81;5011512;28;45545;-87
2023/06/10 00:23:55;;;;;;;;;16.00;16.00;;;;;27.85;43.13;68527.34;5009138;28;45653;-88
2023/06/10 00:26:23;;;;;;;;;15.00;13.33;;;;;27.68;42.75;68541.13;5008857;28;45626;-88
2023/06/10 00:28:49;;;;;;;;;13.67;13.00;;;;;27.67;42.36;68566.53;4992264;28;46987;-88
2023/06/10 00:31:15;;;;;;;;;12.67;11.33;;;;;27.97;42.37;68604.53;5011340;28;46053;-88
2023/06/10 00:33:41;;;;;;;;;12.33;12.33;;;;;27.85;42.16;68636.63;5005221;28;45683;-88
2023/06/10 00:36:06;;;;;;;;;9.33;9.33;;;;;27.51;42.00;68603.25;5002958;28;45576;-88
2023/06/10 00:38:32;;;;;;;;;9.33;8.67;;;;;27.96;42.28;68670.75;5008630;28;46416;-88
2023/06/10 00:40:57;;;;;;;;;7.00;7.00;;;;;27.94;41.74;68722.75;5012302;28;45640;-88
2023/06/10 00:43:22;;;;;;;;;7.33;6.67;;;;;27.92;41.64;68780.19;5013460;28;45927;-88
2023/06/10 00:45:48;;;;;;;;;8.00;7.33;;;;;27.90;41.82;68769.69;5012954;28;45573;-87
2023/06/10 00:48:13;;;;;;;;;6.33;6.33;;;;;27.87;41.60;68780.31;5018358;28;46062;-87
2023/06/10 00:50:39;;;;;;;;;5.33;5.33;;;;;27.85;41.27;68736.59;5018258;28;45443;-87
2023/06/10 00:53:05;;;;;;;;;6.33;6.33;;;;;27.59;41.82;68766.91;5018685;28;45577;-87
2023/06/10 00:55:32;;;;;;;;;7.00;7.00;;;;;27.61;41.78;68787.69;5018893;28;45591;-87
2023/06/10 00:57:58;;;;;;;;;4.00;3.00;;;;;27.79;41.97;68792.59;5018589;28;45439;-86
2023/06/10 05:01:50;;;;;;;;;7.67;5.00;;;;;25.37;49.67;60582.91;5375870;22;45526;-91
2023/06/10 05:04:15;;;;;;;;;5.33;5.33;;;;;25.57;49.67;60483.88;5014478;28;45475;-91
2023/06/10 05:06:41;;;;;;;;;4.67;4.00;;;;;25.01;49.42;60462.06;5014580;28;45460;-93
2023/06/10 05:09:06;;;;;;;;;5.00;5.00;;;;;24.93;49.52;60043.38;5015548;28;45466;-93
2023/06/10 05:11:32;;;;;;;;;5.33;5.33;;;;;24.95;50.03;60029.78;4985766;28;45527;-89
2023/06/10 05:13:57;;;;;;;;;5.33;5.33;;;;;25.09;49.92;59960.06;5006680;28;45446;-91
2023/06/10 05:16:22;;;;;;;;;4.00;4.00;;;;;25.36;49.78;60003.78;5001366;28;45533;-90
2023/06/10 05:18:48;;;;;;;;;6.00;5.00;;;;;25.19;49.56;59843.56;4988566;28;46896;-90
2023/06/10 05:21:20;;;;;;;;;6.00;6.00;;;;;25.62;49.90;59943.22;4989057;28;45798;-94
2023/06/10 05:30:42;;;;;;;;;6.00;5.00;;;;;25.62;49.52;59868.06;5038985;22;45394;-79
2023/06/10 05:33:07;;;;;;;;;4.67;4.67;;;;;25.67;49.13;59875.44;5026488;28;46380;-79
2023/06/10 05:35:33;;;;;;;;;4.67;4.67;;;;;25.59;49.88;59781.22;5023367;28;45743;-78
2023/06/10 05:37:58;;;;;;;;;6.00;6.00;;;;;25.57;49.93;59492.25;5021465;28;45427;-77
2023/06/10 05:40:23;;;;;;;;;4.67;4.67;;;;;25.59;50.10;59280.84;5007698;28;46202;-78
2023/06/10 05:42:49;;;;;;;;;5.67;5.33;;;;;25.72;49.75;59399.06;5027117;28;45625;-78
2023/06/10 05:45:15;;;;;;;;;6.00;6.00;;;;;25.67;49.63;59186.88;5024088;28;51665;-78
2023/06/10 05:47:40;;;;;;;;;5.00;5.00;;;;;25.68;50.17;59079.84;5009995;28;45593;-77
2023/06/10 05:50:09;;;;;;;;;5.33;5.33;;;;;25.63;49.75;59047.19;5031422;28;47028;-77
2023/06/10 05:52:36;;;;;;;;;6.00;4.67;;;;;25.58;50.10;59206.88;4995890;28;45864;-77
2023/06/10 05:55:04;;;;;;;;;5.33;5.33;;;;;25.55;50.17;59028.75;5028989;28;45606;-77
2023/06/10 05:57:30;;;;;;;;;6.00;6.00;;;;;25.56;50.09;58745.63;5006287;28;46050;-77
2023/06/10 05:59:55;;;;;;;;;6.67;6.00;;;;;25.57;50.18;58330.69;5025395;28;47017;-77
2023/06/10 06:02:21;;;;;;;;;7.00;4.33;;;;;25.48;50.35;58057.97;5026398;28;48028;-77
2023/06/10 06:04:46;;;;;;;;;7.33;6.00;;;;;25.64;50.02;57970.91;5011946;28;45414;-79
2023/06/10 06:07:11;;;;;;;;;7.00;7.00;;;;;25.66;50.06;57929.19;5030955;28;45655;-80
2023/06/10 06:09:37;;;;;;;;;8.00;5.67;;;;;25.69;50.11;57670.19;5026165;28;47201;-79
2023/06/10 06:12:02;;;;;;;;;5.00;5.00;;;;;25.70;50.57;57363.78;5026637;28;45565;-78
2023/06/10 06:14:31;;;;;;;;;8.67;6.67;;;;;25.67;50.12;57374.31;5027426;28;45486;-82
2023/06/10 06:16:56;;;;;;;;;9.33;6.33;;;;;25.63;50.90;56986.88;5030930;28;45458;-82
2023/06/10 06:19:21;;;;;;;;;5.67;3.33;;;;;25.67;50.21;56868.81;5027933;28;45471;-82
2023/06/10 06:21:46;;;;;;;;;7.00;5.33;;;;;25.80;50.40;56513.81;5034651;28;45443;-82
2023/06/10 06:24:12;;;;;;;;;8.00;5.00;;;;;25.72;50.61;56568.09;5033702;28;45460;-82
2023/06/10 06:26:37;;;;;;;;;4.00;4.00;;;;;25.90;51.06;56007.75;5030534;28;45393;-81
2023/06/10 06:29:02;;;;;;;;;7.00;6.00;;;;;25.78;50.75;56136.50;5028929;28;46643;-83
2023/06/10 06:31:28;;;;;;;;;5.33;5.33;;;;;25.83;50.70;55887.53;5033154;28;46573;-83
2023/06/10 06:33:53;;;;;;;;;7.00;6.00;;;;;25.93;50.20;56053.88;5031466;28;45808;-84
2023/06/10 06:36:18;;;;;;;;;7.33;6.00;;;;;25.99;50.35;55729.69;5033927;28;45377;-83
2023/06/10 06:38:44;;;;;;;;;5.00;3.00;;;;;26.07;50.59;55870.28;5033273;28;46986;-83
2023/06/10 06:41:09;;;;;;;;;6.67;5.67;;;;;26.05;50.58;55500.97;5012555;28;45616;-84
2023/06/10 06:43:34;;;;;;;;;6.33;5.33;;;;;26.01;50.53;55078.03;5030541;28;45452;-83
2023/06/10 06:46:00;;;;;;;;;4.33;4.33;;;;;26.09;50.79;54575.72;5034820;28;45639;-83
2023/06/10 06:48:25;;;;;;;;;5.33;5.00;;;;;26.13;50.66;54664.97;5009115;28;46396;-84
2023/06/10 06:50:51;;;;;;;;;4.00;4.00;;;;;26.25;50.91;54549.88;5006989;28;45516;-79
2023/06/10 06:53:16;;;;;;;;;6.67;6.00;;;;;26.20;50.73;54847.19;5012652;28;45567;-78
2023/06/10 06:55:41;;;;;;;;;5.33;5.33;;;;;26.34;50.48;54752.44;5010786;28;45555;-78
2023/06/10 06:58:07;;;;;;;;;8.33;5.33;;;;;26.24;50.35;54729.91;5025613;28;49105;-79
2023/06/10 07:00:32;;;;;;;;;9.00;6.00;;;;;26.37;50.43;54228.47;5033135;28;46499;-82
2023/06/10 07:02:58;;;;;;;;;7.00;4.33;;;;;26.42;50.58;53738.78;5034498;28;45444;-82
2023/06/10 07:05:27;;;;;;;;;4.67;4.67;;;;;26.47;50.43;53921.75;5025556;28;45770;-82
2023/06/10 07:07:54;;;;;;;;;4.33;4.33;;;;;26.31;50.48;53817.66;5033870;28;47152;-82
2023/06/10 07:10:26;;;;;;;;;9.67;6.00;;;;;26.57;50.44;53824.81;5031184;28;45525;-79
2023/06/10 07:12:52;;;;;;;;;7.00;6.67;;;;;26.57;50.57;53854.53;5033298;28;45471;-79
2023/06/10 07:15:17;;;;;;;;;3.33;3.33;;;;;26.66;49.96;53765.66;5029551;28;45726;-79
2023/06/10 07:17:43;;;;;;;;;6.33;5.00;;;;;26.60;49.96;54078.91;5032216;28;47671;-79
2023/06/10 07:20:09;;;;;;;;;5.33;5.33;;;;;26.77;49.99;53924.59;5032854;28;46491;-81
2023/06/10 07:22:35;;;;;;;;;6.00;6.00;;;;;26.81;49.88;53909.41;5025953;28;45480;-81
2023/06/10 07:25:00;;;;;;;;;6.00;6.00;;;;;26.86;49.99;53405.88;5025205;28;45678;-81
2023/06/10 07:27:26;;;;;;;;;3.00;3.00;;;;;26.77;50.38;53399.78;5033855;28;46918;-81
2023/06/10 07:29:51;;;;;;;;;5.00;4.33;;;;;26.88;50.17;53388.34;5025739;28;45736;-81
2023/06/10 07:32:17;;;;;;;;;5.67;5.67;;;;;26.98;49.78;53143.50;5025896;28;45667;-82
2023/06/10 07:34:42;;;;;;;;;5.00;5.00;;;;;26.99;50.08;53243.97;5027165;28;45557;-82
2023/06/10 07:37:08;;;;;;;;;6.67;5.00;;;;;27.07;49.89;53211.28;5030151;28;46005;-85
2023/06/10 07:39:34;;;;;;;;;7.00;7.00;;;;;26.81;49.33;53306.66;5021302;28;45418;-88
2023/06/10 07:41:59;;;;;;;;;7.00;6.00;;;;;27.11;49.59;53098.72;5007489;28;45433;-83
2023/06/10 07:44:24;;;;;;;;;5.67;4.67;;;;;27.16;49.80;53170.91;5025881;28;45592;-82
2023/06/10 07:46:50;;;;;;;;;6.00;4.33;;;;;27.26;49.93;53203.59;5021888;28;45546;-84
2023/06/10 07:49:17;;;;;;;;;6.33;4.67;;;;;27.02;49.42;53360.28;5026130;28;46939;-83
2023/06/10 07:51:44;;;;;;;;;7.33;5.00;;;;;27.29;49.38;53523.28;5025578;28;45554;-83
2023/06/10 07:54:09;;;;;;;;;7.00;5.00;;;;;27.32;49.50;53366.00;5028952;28;45644;-84
2023/06/10 07:56:34;;;;;;;;;5.00;4.00;;;;;27.35;49.22;53642.03;5024708;28;46182;-79
2023/06/10 07:59:00;;;;;;;;;5.00;5.00;;;;;27.32;48.84;53928.69;5020812;28;45568;-81
2023/06/10 08:01:25;;;;;;;;;5.33;5.33;;;;;27.35;49.01;53615.44;5024253;28;45390;-82
2023/06/10 08:03:50;;;;;;;;;5.67;5.67;;;;;27.37;49.35;53600.59;5014898;28;45445;-82
2023/06/10 08:06:17;;;;;;;;;5.00;5.00;;;;;27.48;48.89;53689.28;5033946;28;45468;-82
2023/06/10 08:08:43;;;;;;;;;3.00;3.00;;;;;27.55;49.05;53755.34;5015604;28;45414;-82
2023/06/10 08:11:12;;;;;;;;;6.00;5.00;;;;;27.43;48.85;53708.97;5029595;28;45515;-84
2023/06/10 08:13:37;;;;;;;;;3.33;3.33;;;;;27.72;48.47;53967.88;5015613;28;45440;-84
2023/06/10 08:16:04;;;;;;;;;6.00;6.00;;;;;27.81;48.50;54054.34;5011830;28;47380;-87
2023/06/10 08:18:29;;;;;;;;;5.67;5.67;;;;;27.82;48.23;54472.75;5025843;28;45454;-86
2023/06/10 08:20:55;;;;;;;;;5.33;5.33;;;;;27.89;48.05;54896.47;5000638;28;45416;-86
2023/06/10 08:23:20;;;;;;;;;5.33;5.33;;;;;27.99;47.38;55412.09;5020345;28;46151;-85
2023/06/10 08:25:45;;;;;;;;;7.00;5.00;;;;;28.05;47.63;55770.09;5028086;28;45589;-85
2023/06/10 08:28:11;;;;;;;;;5.00;4.00;;;;;27.99;47.26;55718.25;5027222;28;46108;-85
2023/06/10 08:30:36;;;;;;;;;7.33;6.00;;;;;28.12;47.18;56026.19;5020060;28;45394;-85
2023/06/10 08:33:02;;;;;;;;;4.67;4.67;;;;;28.29;46.77;56358.88;5027773;28;45493;-85
2023/06/10 08:35:27;;;;;;;;;4.00;4.00;;;;;28.35;46.83;56511.16;5032642;28;45442;-85
2023/06/10 08:37:52;;;;;;;;;5.33;5.33;;;;;28.11;46.60;56970.69;5005130;28;45426;-85
2023/06/10 08:40:18;;;;;;;;;6.67;6.67;;;;;28.43;46.56;56828.13;5028984;28;45622;-84
2023/06/10 08:42:48;;;;;;;;;4.00;4.00;;;;;28.58;46.38;57165.22;5019924;28;46072;-83
2023/06/10 08:45:20;;;;;;;;;6.67;5.00;;;;;28.71;46.18;57215.56;5028713;28;47426;-83
2023/06/10 08:47:48;;;;;;;;;7.00;6.33;;;;;28.81;45.77;57179.78;5021206;28;45846;-85
2023/06/10 08:50:16;;;;;;;;;9.33;7.00;;;;;29.55;44.68;57995.00;5016624;28;45461;-84
2023/06/10 08:52:43;;;;;;;;;4.67;4.67;;;;;29.76;44.06;59094.97;5029737;28;45499;-84
2023/06/10 08:55:19;;;;;;;;;6.00;5.00;;;;;29.74;43.50;59609.63;5029622;28;45528;-82
2023/06/10 08:57:47;;;;;;;;;7.33;7.33;;;;;29.95;44.00;59383.13;5029853;28;45353;-81
2023/06/10 09:00:14;;;;;;;;;5.33;5.33;;;;;30.24;43.29;59600.06;5029604;28;45472;-82
2023/06/10 09:02:43;;;;;;;;;6.00;6.00;;;;;30.21;42.75;60609.56;5016817;28;45473;-82
2023/06/10 09:05:09;;;;;;;;;6.00;5.33;;;;;30.38;42.78;60578.28;5027235;28;47395;-80
2023/06/10 09:07:36;;;;;;;;;6.33;5.33;;;;;30.61;42.40;60735.19;5035033;28;45414;-80
2023/06/10 09:10:03;;;;;;;;;3.33;3.33;;;;;30.58;42.64;61036.63;5037068;28;45500;-80
2023/06/10 09:12:29;;;;;;;;;5.00;5.00;;;;;30.94;42.29;61202.03;5034470;28;45718;-80
2023/06/10 09:14:55;;;;;;;;;3.33;3.33;;;;;31.08;40.93;62225.13;5035094;28;46290;-81
2023/06/10 09:17:20;;;;;;;;;4.33;3.33;;;;;31.02;41.66;62221.44;5008939;28;46251;-80
2023/06/10 09:19:46;;;;;;;;;5.00;4.00;;;;;31.18;41.23;62312.19;5036665;28;45501;-79
2023/06/10 09:22:11;;;;;;;;;5.33;4.67;;;;;31.48;40.57;63011.88;5033242;28;45755;-78
2023/06/10 09:24:38;;;;;;;;;5.00;5.00;;;;;31.62;40.32;63425.06;5034025;28;45379;-78
2023/06/10 09:27:08;;;;;;;;;4.67;4.67;;;;;31.77;40.17;63378.56;5016699;28;45459;-78
2023/06/10 09:29:54;;;;;;;;;6.00;6.00;;;;;32.10;39.64;63258.19;5031832;28;45777;-80
2023/06/10 09:32:21;;;;;;;;;3.00;3.00;;;;;32.65;39.02;63978.03;5018329;28;45830;-79
2023/06/10 09:34:47;;;;;;;;;4.00;4.00;;;;;33.09;38.13;64813.50;5009756;28;45576;-79
2023/06/10 09:37:13;;;;;;;;;3.67;3.33;;;;;33.31;37.98;65072.88;5031720;28;45533;-79
2023/06/10 09:39:40;;;;;;;;;5.00;4.00;;;;;33.52;37.85;65259.50;5018968;28;45413;-77
2023/06/10 09:42:35;;;;;;;;;4.33;4.33;;;;;33.91;37.28;65677.53;5035550;28;46081;-77
2023/06/10 09:45:02;;;;;;;;;5.33;4.00;;;;;34.15;36.82;66220.13;5027859;28;45556;-80
2023/06/10 09:47:28;;;;;;;;;4.00;3.00;;;;;34.39;36.04;66971.19;5020887;28;45648;-79
2023/06/10 09:49:53;;;;;;;;;3.00;3.00;;;;;34.52;35.95;67287.47;5002686;28;45739;-79
2023/06/10 09:52:23;;;;;;;;;4.67;4.67;;;;;35.13;35.06;67671.28;5026407;28;45871;-82
2023/06/10 09:54:50;;;;;;;;;4.00;4.00;;;;;35.96;34.21;68167.13;5024802;28;47223;-80
2023/06/10 09:57:17;;;;;;;;;4.00;4.00;;;;;36.89;32.79;69077.16;5029485;28;45462;-81
2023/06/10 09:59:42;;;;;;;;;4.33;4.33;;;;;37.86;31.11;69815.03;5028252;28;45570;-80
2023/06/10 10:02:16;;;;;;;;;4.00;4.00;;;;;38.45;30.57;70511.31;5029437;28;45410;-82
2023/06/10 10:04:43;;;;;;;;;4.67;4.33;;;;;38.82;29.59;70856.53;5026891;28;47349;-84
2023/06/10 10:07:09;;;;;;;;;2.67;2.67;;;;;38.64;29.28;70973.75;5019663;28;45542;-81
2023/06/10 10:09:42;;;;;;;;;4.00;4.00;;;;;38.40;30.30;71074.78;5027520;28;45707;-84
2023/06/10 10:12:12;;;;;;;;;4.33;3.00;;;;;38.69;29.31;71103.03;5034862;28;45830;-86
2023/06/10 10:14:43;;;;;;;;;5.00;4.00;;;;;38.94;28.73;71232.81;5036192;28;46152;-84
2023/06/10 10:17:11;;;;;;;;;2.33;2.33;;;;;39.11;28.33;71319.16;5023209;28;45716;-83
2023/06/10 10:20:01;;;;;;;;;4.00;4.00;;;;;39.23;27.22;71222.94;5011045;28;46442;-86
2023/06/10 10:22:31;;;;;;;;;2.33;2.33;;;;;39.05;28.15;71386.63;5025125;28;45444;-84
2023/06/10 10:25:01;;;;;;;;;3.00;2.67;;;;;38.88;27.40;71366.06;5028597;28;45701;-87
2023/06/10 10:27:30;;;;;;;;;2.67;2.67;;;;;39.91;26.97;71441.22;5037262;28;45441;-85
2023/06/10 10:29:58;;;;;;;;;3.33;2.33;;;;;39.67;27.40;71504.81;5005314;28;45546;-83
2023/06/10 10:32:43;;;;;;;;;1.67;1.67;;;;;40.02;27.17;71420.69;4999048;28;45395;-84
2023/06/10 10:35:14;;;;;;;;;4.33;4.33;;;;;39.98;26.75;71397.03;4983456;28;47076;-89
2023/06/10 10:37:40;;;;;;;;;3.00;3.00;;;;;39.70;27.35;71463.50;4999349;28;45791;-89
2023/06/10 10:40:07;;;;;;;;;3.33;3.33;;;;;40.00;27.07;71396.69;5005359;28;45520;-84
2023/06/10 10:42:34;;;;;;;;;2.33;2.33;;;;;40.04;26.36;71271.25;4998548;28;45487;-87
2023/06/10 10:45:00;;;;;;;;;3.00;3.00;;;;;39.51;26.35;71097.09;5011914;28;47168;-86
2023/06/10 10:47:31;;;;;;;;;4.67;4.67;;;;;39.58;26.04;71117.19;5007499;28;45515;-84
2023/06/10 10:49:59;;;;;;;;;4.33;2.67;;;;;39.56;26.48;71125.88;5003522;28;45564;-84
2023/06/10 10:52:27;;;;;;;;;4.00;4.00;;;;;39.76;26.40;71134.91;5005504;28;45792;-86
2023/06/10 10:54:54;;;;;;;;;5.00;4.00;;;;;39.66;25.51;70932.34;4990950;28;48422;-85
2023/06/10 10:57:23;;;;;;;;;3.00;3.00;;;;;39.57;26.39;71143.72;5007369;28;45738;-85
2023/06/10 10:59:49;;;;;;;;;4.00;4.00;;;;;39.81;26.47;71071.72;4993688;28;45416;-86
2023/06/10 11:02:18;;;;;;;;;4.33;4.33;;;;;39.95;26.26;71162.78;4998729;28;45612;-84
2023/06/10 11:04:48;;;;;;;;;5.00;3.67;;;;;39.96;26.01;71047.59;5002892;28;45693;-84
2023/06/10 11:07:15;;;;;;;;;7.00;5.67;;;;;39.67;25.26;70898.13;5006883;28;45527;-85
2023/06/10 11:10:00;;;;;;;;;6.00;6.00;;;;;39.57;26.39;71052.31;5003012;28;45549;-87
2023/06/10 11:12:26;;;;;;;;;3.67;3.67;;;;;39.38;26.01;70819.59;5008282;28;45563;-84
2023/06/10 11:14:56;;;;;;;;;5.00;5.00;;;;;39.23;26.31;70973.78;4997558;28;46413;-82
2023/06/10 11:17:21;;;;;;;;;2.67;2.00;;;;;39.05;26.71;71026.84;5010524;28;45529;-84
2023/06/10 11:19:47;;;;;;;;;4.33;4.33;;;;;39.18;26.62;70936.75;5011717;28;45478;-86
2023/06/10 11:22:18;;;;;;;;;5.33;5.00;;;;;39.35;26.09;70907.34;5001726;28;45629;-85
2023/06/10 11:24:49;;;;;;;;;5.67;5.33;;;;;39.60;26.52;71017.13;5004492;28;46421;-84
2023/06/10 11:27:19;;;;;;;;;4.00;4.00;;;;;39.68;26.15;71031.69;5014747;28;45466;-85
2023/06/10 11:30:07;;;;;;;;;3.00;3.00;;;;;39.38;26.12;70941.41;5022490;28;45913;-86
2023/06/10 11:32:34;;;;;;;;;6.33;4.67;;;;;38.89;26.73;70827.75;5018162;28;45533;-81
2023/06/10 11:35:03;;;;;;;;;6.00;5.00;;;;;38.78;27.17;70876.00;5018194;28;47682;-82
2023/06/10 11:37:28;;;;;;;;;4.00;4.00;;;;;38.80;27.50;70956.47;5035544;28;45464;-81
2023/06/10 11:39:55;;;;;;;;;5.00;5.00;;;;;38.49;27.35;70866.63;5017865;28;45502;-86
2023/06/10 11:42:22;;;;;;;;;5.00;3.33;;;;;38.25;27.65;70841.72;5020848;28;45429;-86
2023/06/10 11:44:49;;;;;;;;;2.33;2.33;;;;;38.05;27.92;70870.19;5016209;28;46147;-81
2023/06/10 11:47:14;;;;;;;;;5.00;5.00;;;;;37.53;28.42;70864.63;5021554;28;45311;-82
2023/06/10 11:49:40;;;;;;;;;4.33;4.33;;;;;37.39;28.98;70763.44;5025276;28;45436;-88
2023/06/10 11:52:05;;;;;;;;;5.00;5.00;;;;;37.32;28.58;70795.81;5032534;28;45481;-89
2023/06/10 11:54:31;;;;;;;;;3.00;3.00;;;;;37.00;28.31;70680.72;5005232;28;47249;-86
2023/06/10 11:57:00;;;;;;;;;5.33;5.00;;;;;37.09;28.29;70699.81;5007787;28;45554;-84
2023/06/10 11:59:28;;;;;;;;;4.00;4.00;;;;;36.73;28.80;70719.03;5023004;28;45513;-87
2023/06/10 12:01:54;;;;;;;;;5.33;5.33;;;;;36.22;28.72;70730.59;5021467;28;45545;-85
2023/06/10 12:04:19;;;;;;;;;3.67;3.67;;;;;36.41;28.86;70719.75;5021970;28;46474;-85
2023/06/10 12:06:49;;;;;;;;;5.33;4.33;;;;;36.04;29.76;70662.69;5031834;28;45809;-86
2023/06/10 12:09:15;;;;;;;;;5.00;5.00;;;;;35.81;30.27;70668.13;5022925;28;45637;-85
2023/06/10 12:11:40;;;;;;;;;5.67;4.00;;;;;35.50;29.96;70772.41;5030544;28;45395;-85
2023/06/10 12:14:06;;;;;;;;;3.67;3.67;;;;;35.81;30.90;70712.16;5004163;28;46194;-85
2023/06/10 12:16:31;;;;;;;;;4.33;4.33;;;;;35.78;30.13;70661.75;5023510;28;45540;-85
2023/06/10 12:19:02;;;;;;;;;5.33;5.00;;;;;35.90;30.52;70706.47;5015872;28;45482;-84
2023/06/10 12:21:28;;;;;;;;;5.67;5.67;;;;;35.72;30.36;70718.47;5019255;28;45657;-89
2023/06/10 12:24:04;;;;;;;;;5.33;5.33;;;;;35.72;30.72;70754.84;5013952;28;47224;-88
2023/06/10 12:26:44;;;;;;;;;5.67;5.67;;;;;35.46;30.32;70680.13;5028797;28;45764;-91
2023/06/10 12:29:23;;;;;;;;;5.00;5.00;;;;;35.66;30.02;70676.06;5008741;28;45503;-87
2023/06/10 12:32:00;;;;;;;;;4.67;4.67;;;;;35.59;30.76;70730.94;5034645;28;45488;-89
2023/06/10 12:34:29;;;;;;;;;5.00;5.00;;;;;35.60;30.50;70750.78;5035240;28;45599;-84
2023/06/10 12:36:54;;;;;;;;;3.67;3.67;;;;;35.59;31.20;70717.19;5033988;28;45477;-76
2023/06/10 12:39:19;;;;;;;;;5.67;5.67;;;;;35.49;30.50;70746.41;5034762;28;45442;-78
2023/06/10 12:41:49;;;;;;;;;4.67;3.67;;;;;35.35;30.49;70796.19;5031225;28;45540;-81
2023/06/10 12:44:15;;;;;;;;;5.00;5.00;;;;;35.20;31.35;70674.22;5013381;28;46326;-94
2023/06/10 12:46:40;;;;;;;;;8.00;6.00;;;;;35.37;31.44;70666.53;5035406;28;45382;-84
2023/06/10 12:49:05;;;;;;;;;4.00;4.00;;;;;35.09;31.24;70605.97;5020675;28;45494;-90
2023/06/10 12:51:31;;;;;;;;;7.33;5.00;;;;;35.13;31.67;70742.22;5036800;28;45466;-89
2023/06/10 12:53:56;;;;;;;;;13.00;11.67;;;;;35.19;31.11;70741.19;5037735;28;46499;-80
2023/06/10 12:56:22;;;;;;;;;7.67;6.33;;;;;35.03;32.05;70659.28;5038091;28;45599;-82
2023/06/10 12:58:47;;;;;;;;;6.33;4.67;;;;;34.86;31.75;70700.50;5038412;28;45473;-83
2023/06/10 13:01:13;;;;;;;;;9.00;6.33;;;;;34.57;32.44;70668.34;5037979;28;45553;-78
2023/06/10 13:03:40;;;;;;;;;5.00;5.00;;;;;34.41;32.41;70658.53;5036427;28;47071;-86
2023/06/10 13:06:06;;;;;;;;;7.00;5.00;;;;;34.40;33.20;70604.56;5024727;28;45773;-84
2023/06/10 13:08:32;;;;;;;;;8.00;6.00;;;;;34.22;33.16;70625.28;5032827;28;45602;-83
2023/06/10 13:10:57;;;;;;;;;6.67;5.00;;;;;34.08;33.02;70663.34;5026023;28;46497;-83
2023/06/10 13:13:23;;;;;;;;;6.00;5.00;;;;;34.05;32.86;70604.84;5035291;28;47412;-88
2023/06/10 13:15:49;;;;;;;;;4.67;4.33;;;;;34.30;32.29;70573.28;5027945;28;45520;-83
2023/06/10 13:18:17;;;;;;;;;5.00;5.00;;;;;34.30;33.26;70628.81;5034204;28;45582;-81
2023/06/10 13:20:43;;;;;;;;;5.33;4.00;;;;;34.31;33.43;70580.59;5033879;28;45582;-80
2023/06/10 13:23:08;;;;;;;;;5.33;5.33;;;;;34.22;33.60;70592.34;5036665;28;46240;-81
2023/06/10 13:25:34;;;;;;;;;5.67;5.67;;;;;34.08;32.97;70547.44;5028447;28;45957;-79
2023/06/10 13:27:59;;;;;;;;;6.67;4.00;;;;;33.93;33.56;70582.19;5034328;28;45420;-81
2023/06/10 13:30:26;;;;;;;;;4.67;4.67;;;;;33.75;33.13;70548.00;5019614;28;45539;-85
2023/06/10 13:32:51;;;;;;;;;8.00;5.67;;;;;33.79;33.50;70554.97;5041993;28;46186;-85
2023/06/10 13:35:17;;;;;;;;;8.00;8.00;;;;;33.98;33.49;70616.25;5058073;28;45765;-84
2023/06/10 13:37:42;;;;;;;;;6.00;4.67;;;;;34.11;33.46;70647.16;5041625;28;45426;-83
2023/06/10 13:40:09;;;;;;;;;5.33;5.00;;;;;33.93;33.98;70576.69;5038364;28;45366;-83
2023/06/10 13:42:35;;;;;;;;;5.00;5.00;;;;;33.76;33.59;70510.81;5038036;28;45449;-82
2023/06/10 13:45:01;;;;;;;;;5.00;5.00;;;;;33.91;33.19;70550.19;5017433;28;45529;-83
2023/06/10 13:47:26;;;;;;;;;6.00;6.00;;;;;33.82;32.99;70531.72;5034138;28;45470;-82
2023/06/10 13:49:51;;;;;;;;;6.00;6.00;;;;;33.67;33.42;70530.19;5036902;28;45634;-82
2023/06/10 13:52:17;;;;;;;;;6.00;6.00;;;;;33.48;33.81;70477.72;5035274;28;45515;-92
2023/06/10 13:54:43;;;;;;;;;6.33;5.33;;;;;33.22;34.15;70496.47;5020156;28;45529;-95
2023/06/10 13:57:10;;;;;;;;;6.33;6.33;;;;;33.43;34.46;70474.47;5038311;28;45348;-91
2023/06/10 13:59:35;;;;;;;;;5.00;5.00;;;;;33.33;34.33;70503.63;5029972;28;45697;-91
2023/06/10 14:02:01;;;;;;;;;6.67;6.67;;;;;33.15;34.29;70458.50;5017625;28;45850;-90
2023/06/10 14:04:27;;;;;;;;;4.00;4.00;;;;;33.10;34.13;70436.06;5033308;28;45894;-88
2023/06/10 14:06:52;;;;;;;;;6.00;5.00;;;;;33.08;34.66;70441.88;5031379;28;45524;-88
2023/06/10 14:09:18;;;;;;;;;6.00;6.00;;;;;33.00;34.39;70377.44;5012261;28;45635;-88
2023/06/10 14:11:44;;;;;;;;;10.00;7.33;;;;;32.87;34.06;70466.56;5015113;28;47056;-87
2023/06/10 14:14:10;;;;;;;;;6.33;6.33;;;;;32.80;34.62;70439.59;5028905;28;46996;-87
2023/06/10 14:16:35;;;;;;;;;8.00;6.67;;;;;32.75;35.06;70447.25;5019343;28;45427;-88
2023/06/10 14:19:00;;;;;;;;;6.33;6.33;;;;;32.78;34.87;70400.97;5037328;28;45400;-90
2023/06/10 14:21:26;;;;;;;;;6.00;6.00;;;;;32.73;34.70;70362.69;5019444;28;47706;-89
2023/06/10 14:23:53;;;;;;;;;7.00;7.00;;;;;32.49;35.00;70359.09;5037091;28;45417;-90
2023/06/10 14:26:18;;;;;;;;;6.67;6.67;;;;;32.40;34.95;70394.84;5016171;28;45568;-92
2023/06/10 14:28:44;;;;;;;;;7.00;5.33;;;;;32.56;35.13;70388.84;5019822;28;45797;-93
2023/06/10 14:31:09;;;;;;;;;5.67;5.67;;;;;32.61;35.27;70359.22;5052447;28;45714;-92
2023/06/10 14:33:35;;;;;;;;;8.00;5.67;;;;;32.67;35.09;70398.72;5056222;28;45478;-92
2023/06/10 14:36:00;;;;;;;;;7.33;5.67;;;;;32.47;35.05;70320.50;5014612;28;45384;-87
2023/06/10 14:38:25;;;;;;;;;6.00;5.00;;;;;32.66;34.82;70282.44;5036056;28;45445;-90
2023/06/10 14:40:52;;;;;;;;;8.00;8.00;;;;;32.75;35.07;70296.56;5036191;28;47046;-89
2023/06/10 14:43:17;;;;;;;;;8.00;6.00;;;;;32.77;34.71;70372.94;5025878;28;45323;-89
2023/06/10 14:45:44;;;;;;;;;7.33;7.00;;;;;32.83;35.30;70349.41;5032252;28;45730;-91
2023/06/10 14:48:10;;;;;;;;;8.00;6.33;;;;;32.76;35.32;70346.50;5027031;28;45428;-92
2023/06/10 14:50:35;;;;;;;;;8.33;6.00;;;;;32.80;35.24;70357.38;5033343;28;46042;-90
2023/06/10 14:53:01;;;;;;;;;9.00;6.00;;;;;32.87;34.59;70460.47;5032722;28;45498;-87
2023/06/10 14:55:27;;;;;;;;;6.33;5.33;;;;;32.98;35.17;70340.00;5027165;28;45473;-86
2023/06/10 14:57:52;;;;;;;;;6.00;6.00;;;;;32.80;34.58;70332.09;5033703;28;45527;-86
2023/06/10 15:00:23;;;;;;;;;6.00;6.00;;;;;32.99;35.07;70332.97;5034565;28;45511;-88
2023/06/10 15:02:49;;;;;;;;;7.67;6.33;;;;;32.97;34.60;70414.94;5033366;28;45465;-85
2023/06/10 15:05:15;;;;;;;;;5.67;5.67;;;;;32.69;34.65;70346.94;5029846;28;45614;-87
2023/06/10 15:07:42;;;;;;;;;7.00;5.33;;;;;32.72;34.70;70328.59;5034306;28;45760;-86
2023/06/10 15:10:08;;;;;;;;;8.00;7.33;;;;;32.84;35.29;70358.84;5035396;28;46525;-87
2023/06/10 15:12:33;;;;;;;;;6.67;6.67;;;;;32.93;35.19;70435.41;5035972;28;45432;-90
2023/06/10 15:14:58;;;;;;;;;6.33;6.33;;;;;33.05;34.91;70394.41;5014599;28;45468;-88
2023/06/10 15:17:24;;;;;;;;;6.00;6.00;;;;;33.03;34.98;70322.88;5029905;28;45332;-84
2023/06/10 15:19:49;;;;;;;;;6.67;6.67;;;;;33.06;34.69;70401.09;5035202;28;45454;-83
2023/06/10 15:22:14;;;;;;;;;1.67;0.67;;;;;33.10;34.95;70353.81;5032302;28;45632;-80
2023/06/10 15:24:40;;;;;;;;;7.00;6.00;;;;;33.06;34.75;70376.44;5035162;28;45517;-79
2023/06/10 15:27:05;;;;;;;;;5.67;5.67;;;;;33.08;35.04;70392.53;5035577;28;45447;-80
2023/06/10 15:29:31;;;;;;;;;6.00;5.00;;;;;32.98;34.66;70378.38;5034785;28;47205;-79
2023/06/10 15:31:56;;;;;;;;;6.33;6.33;;;;;32.97;35.19;70349.78;5017701;28;45456;-80
2023/06/10 15:34:21;;;;;;;;;6.67;6.67;;;;;32.77;35.00;70383.91;5015075;28;45347;-79
2023/06/10 15:36:47;;;;;;;;;6.00;6.00;;;;;32.84;35.52;70360.97;5018432;28;45556;-80
2023/06/10 15:39:13;;;;;;;;;8.33;5.00;;;;;32.74;35.82;70346.84;5032614;28;46847;-79